createdAt,value
2023-03-03T00:02:30.859Z,100545.59
2023-03-03T00:05:18.602Z,100512.03
2023-03-03T00:08:02.856Z,100546.09
2023-03-03T00:10:46.992Z,100529.44
2023-03-03T00:13:32.902Z,100538.50
2023-03-03T00:16:22.625Z,100544.75
2023-03-03T00:19:15.930Z,100540.84
2023-03-03T00:22:01.143Z,100540.41
2023-03-03T00:24:45.103Z,100538.72
2023-03-03T00:27:31.766Z,100535.00
2023-03-03T00:30:21.337Z,100483.06
2023-03-03T00:33:20.904Z,100525.78
2023-03-03T00:36:28.766Z,100527.69
2023-03-03T00:39:20.539Z,100530.84
2023-03-03T00:42:12.066Z,100487.25
2023-03-03T00:44:58.824Z,100517.22
2023-03-03T00:47:45.113Z,100517.53
2023-03-03T00:50:34.740Z,100520.69
2023-03-03T00:53:20.221Z,100521.59
2023-03-03T00:56:05.579Z,100509.69
2023-03-03T00:58:49.660Z,100506.59
2023-03-03T01:01:35.726Z,100504.47
2023-03-03T01:04:19.627Z,100503.81
2023-03-03T01:07:03.504Z,100493.44
2023-03-03T01:09:47.264Z,100494.78
2023-03-03T01:12:32.470Z,100489.97
2023-03-03T01:15:17.462Z,100488.22
2023-03-03T01:18:01.458Z,100483.53
2023-03-03T01:20:45.438Z,100475.78
2023-03-03T01:23:29.258Z,100482.34
2023-03-03T01:26:13.084Z,100468.63
2023-03-03T01:28:58.414Z,100458.78
2023-03-03T01:31:42.217Z,100472.34
2023-03-03T01:34:26.094Z,100468.34
2023-03-03T01:37:09.865Z,100474.19
2023-03-03T01:39:54.522Z,100459.69
2023-03-03T01:42:38.207Z,100451.56
2023-03-03T01:45:25.357Z,100465.38
2023-03-03T01:48:15.249Z,100458.06
2023-03-03T01:51:03.337Z,100453.09
2023-03-03T01:53:51.235Z,100458.72
2023-03-03T01:56:35.050Z,100448.63
2023-03-03T01:59:22.346Z,100440.50
2023-03-03T02:02:07.717Z,100400.94
2023-03-03T02:04:52.263Z,100398.78
2023-03-03T02:07:37.274Z,100452.59
2023-03-03T02:10:23.006Z,100456.72
2023-03-03T02:13:06.792Z,100459.28
2023-03-03T02:15:50.874Z,100456.13
2023-03-03T02:18:36.233Z,100451.91
2023-03-03T02:21:22.798Z,100453.38
2023-03-03T02:24:12.215Z,100433.66
2023-03-03T02:26:57.602Z,100455.25
2023-03-03T02:29:41.530Z,100449.59
2023-03-03T02:32:25.584Z,100445.50
2023-03-03T02:35:32.910Z,100452.25
2023-03-03T02:38:23.617Z,100454.56
2023-03-03T02:41:16.817Z,100448.44
2023-03-03T02:44:04.843Z,100448.22
2023-03-03T02:46:51.125Z,100448.13
2023-03-03T02:49:36.287Z,100443.06
2023-03-03T02:52:20.409Z,100446.81
2023-03-03T02:55:07.456Z,100448.97
2023-03-03T02:57:51.371Z,100451.16
2023-03-03T03:00:36.497Z,100450.75
2023-03-03T03:03:20.860Z,100441.63
2023-03-03T03:06:05.579Z,100410.59
2023-03-03T03:08:49.574Z,100442.75
2023-03-03T03:11:35.288Z,100421.38
2023-03-03T03:14:21.031Z,100437.50
2023-03-03T03:17:06.193Z,100436.91
2023-03-03T03:19:49.938Z,100433.28
2023-03-03T03:22:34.012Z,100434.56
2023-03-03T03:25:18.122Z,100421.06
2023-03-03T03:28:01.919Z,100429.91
2023-03-03T03:30:46.151Z,100433.50
2023-03-03T03:33:31.744Z,100441.44
2023-03-03T03:36:16.333Z,100437.38
2023-03-03T03:39:02.899Z,100427.13
2023-03-03T03:41:47.803Z,100424.75
2023-03-03T03:44:31.667Z,100431.88
2023-03-03T03:47:15.429Z,100424.00
2023-03-03T03:50:00.904Z,100426.84
2023-03-03T03:52:46.586Z,100417.44
2023-03-03T03:55:31.080Z,100418.88
2023-03-03T03:58:17.159Z,100414.47
2023-03-03T04:01:06.531Z,100411.16
2023-03-03T04:03:53.393Z,100415.44
2023-03-03T04:06:41.961Z,100413.84
2023-03-03T04:09:25.789Z,100407.19
2023-03-03T04:12:09.708Z,100382.88
2023-03-03T04:14:53.724Z,100403.84
2023-03-03T04:17:37.721Z,100403.97
2023-03-03T04:20:22.065Z,100391.81
2023-03-03T04:23:07.315Z,100396.72
2023-03-03T04:25:51.516Z,100407.09
2023-03-03T04:28:36.287Z,100399.16
2023-03-03T04:31:20.654Z,100405.81
2023-03-03T04:34:05.520Z,100399.06
2023-03-03T04:36:50.201Z,100393.94
2023-03-03T04:39:35.864Z,100392.81
2023-03-03T04:42:20.160Z,100395.28
2023-03-03T04:45:05.824Z,100407.44
2023-03-03T04:47:51.040Z,100401.34
2023-03-03T04:50:35.881Z,100404.34
2023-03-03T04:53:20.533Z,100408.09
2023-03-03T04:56:06.193Z,100405.44
2023-03-03T04:58:50.141Z,100388.47
2023-03-03T05:01:34.516Z,100408.91
2023-03-03T05:04:19.476Z,100381.09
2023-03-03T05:07:03.464Z,100404.13
2023-03-03T05:09:47.135Z,100407.50
2023-03-03T05:12:32.361Z,100414.06
2023-03-03T05:15:16.275Z,100410.50
2023-03-03T05:18:00.148Z,100400.41
2023-03-03T05:20:44.064Z,100414.75
2023-03-03T05:23:27.833Z,100374.31
2023-03-03T05:26:11.636Z,100416.72
2023-03-03T05:28:56.808Z,100403.91
2023-03-03T05:31:40.822Z,100406.03
2023-03-03T05:34:24.789Z,100422.03
2023-03-03T05:37:08.614Z,100420.66
2023-03-03T05:39:52.690Z,100430.47
2023-03-03T05:42:36.427Z,100424.91
2023-03-03T05:45:24.458Z,100406.59
2023-03-03T05:48:10.218Z,100424.63
2023-03-03T05:50:54.207Z,100418.34
2023-03-03T05:53:38.145Z,100415.00
2023-03-03T05:56:22.160Z,100418.09
2023-03-03T05:59:06.064Z,100430.19
2023-03-03T06:01:51.922Z,100423.78
2023-03-03T06:04:35.831Z,100418.53
2023-03-03T06:07:19.992Z,100418.81
2023-03-03T06:10:05.101Z,100418.16
2023-03-03T06:12:53.065Z,100410.72
2023-03-03T06:15:37.023Z,100404.50
2023-03-03T06:18:22.369Z,100412.13
2023-03-03T06:21:06.630Z,100426.00
2023-03-03T06:23:50.376Z,100406.00
2023-03-03T06:26:34.447Z,100411.19
2023-03-03T06:29:18.291Z,100418.53
2023-03-03T06:32:02.380Z,100399.25
2023-03-03T06:34:47.676Z,100423.47
2023-03-03T06:37:31.560Z,100386.91
2023-03-03T06:40:16.176Z,100416.75
2023-03-03T06:43:00.022Z,100425.34
2023-03-03T06:45:44.464Z,100428.13
2023-03-03T06:48:28.375Z,100427.31
2023-03-03T06:51:24.378Z,100428.28
2023-03-03T06:54:13.784Z,100416.50
2023-03-03T06:57:01.953Z,100430.59
2023-03-03T06:59:46.770Z,100358.44
2023-03-03T07:02:30.989Z,100424.66
2023-03-03T07:05:17.691Z,100429.56
2023-03-03T07:08:02.961Z,100431.47
2023-03-03T07:10:48.104Z,100433.38
2023-03-03T07:13:33.996Z,100431.25
2023-03-03T07:16:18.886Z,100416.59
2023-03-03T07:19:04.093Z,100420.44
2023-03-03T07:21:47.955Z,100414.03
2023-03-03T07:24:33.268Z,100415.41
2023-03-03T07:27:24.175Z,100408.19
2023-03-03T07:30:25.186Z,100407.50
2023-03-03T07:33:25.911Z,100394.47
2023-03-03T07:36:27.603Z,100402.94
2023-03-03T07:39:40.260Z,100399.06
2023-03-03T07:42:27.871Z,100399.06
2023-03-03T07:45:29.247Z,100400.38
2023-03-03T07:48:25.157Z,100403.44
2023-03-03T07:51:17.499Z,100401.97
2023-03-03T07:54:18.953Z,100381.63
2023-03-03T07:57:16.236Z,100395.13
2023-03-03T08:00:10.276Z,100389.84
2023-03-03T08:02:59.814Z,100388.06
2023-03-03T08:05:45.073Z,100391.94
2023-03-03T08:08:31.447Z,100392.78
2023-03-03T08:11:15.264Z,100391.13
2023-03-03T08:14:01.105Z,100386.16
2023-03-03T08:16:44.990Z,100389.69
2023-03-03T08:19:31.220Z,100394.28
2023-03-03T08:22:18.743Z,100386.00
2023-03-03T08:25:02.609Z,100370.03
2023-03-03T08:27:47.814Z,100371.19
2023-03-03T08:30:33.300Z,100357.06
2023-03-03T08:33:18.240Z,100379.88
2023-03-03T08:36:02.268Z,100373.22
2023-03-03T08:38:46.284Z,100376.81
2023-03-03T08:41:30.075Z,100376.00
2023-03-03T08:44:13.936Z,100384.31
2023-03-03T08:46:59.226Z,100382.44
2023-03-03T08:49:43.049Z,100376.00
2023-03-03T08:52:26.945Z,100382.00
2023-03-03T08:55:11.620Z,100377.00
2023-03-03T08:57:56.588Z,100381.97
2023-03-03T09:00:40.999Z,100371.78
2023-03-03T09:03:26.581Z,100358.50
2023-03-03T09:06:10.794Z,100379.88
2023-03-03T09:08:55.089Z,100369.09
2023-03-03T09:11:39.204Z,100373.06
2023-03-03T09:14:23.167Z,100372.34
2023-03-03T09:17:24.300Z,100369.75
2023-03-03T09:20:28.752Z,100374.44
2023-03-03T09:23:43.500Z,100361.31
2023-03-03T09:26:30.726Z,100357.59
2023-03-03T09:29:26.361Z,100341.94
2023-03-03T09:32:23.705Z,100342.13
2023-03-03T09:35:37.905Z,100344.44
2023-03-03T09:38:29.390Z,100345.34
2023-03-03T09:41:39.540Z,100335.06
2023-03-03T09:44:37.414Z,100341.25
2023-03-03T09:47:37.028Z,100338.00
2023-03-03T09:50:31.344Z,100336.69
2023-03-03T09:53:26.981Z,100299.03
2023-03-03T09:56:18.114Z,100289.50
2023-03-03T09:59:17.730Z,100319.22
2023-03-03T10:02:24.430Z,100316.66
2023-03-03T10:05:20.698Z,100309.91
2023-03-03T10:08:22.470Z,100303.31
2023-03-03T10:11:19.110Z,100286.41
2023-03-03T10:14:18.791Z,100291.69
2023-03-03T10:17:32.158Z,100290.81
2023-03-03T10:20:29.498Z,100264.53
2023-03-03T10:23:25.711Z,100230.34
2023-03-03T10:26:18.903Z,100287.53
2023-03-03T10:29:23.253Z,100234.25
2023-03-03T10:32:30.501Z,100276.06
2023-03-03T10:35:26.432Z,100284.34
2023-03-03T10:38:27.560Z,100267.47
2023-03-03T10:41:33.811Z,100273.50
2023-03-03T10:44:30.711Z,100254.91
2023-03-03T10:47:40.915Z,100264.38
2023-03-03T10:50:32.542Z,100258.72
2023-03-03T10:53:28.120Z,100261.13
2023-03-03T10:56:23.879Z,100260.50
2023-03-03T10:59:26.077Z,100257.38
2023-03-03T11:02:19.053Z,100256.63
2023-03-03T11:05:18.994Z,100250.34
2023-03-03T11:08:08.772Z,100242.03
2023-03-03T11:11:06.915Z,100223.00
2023-03-03T11:13:57.949Z,100219.09
2023-03-03T11:17:01.408Z,100211.41
2023-03-03T11:19:57.718Z,100206.47
2023-03-03T11:22:48.533Z,100201.03
2023-03-03T11:25:39.602Z,100192.56
2023-03-03T11:28:42.793Z,100188.53
2023-03-03T11:31:33.102Z,100170.47
2023-03-03T11:34:38.915Z,100179.63
2023-03-03T11:37:29.089Z,100161.38
2023-03-03T11:40:19.263Z,100173.94
2023-03-03T11:43:11.512Z,100164.47
2023-03-03T11:46:00.743Z,100181.03
2023-03-03T11:48:52.041Z,100175.53
2023-03-03T11:51:48.629Z,100169.28
2023-03-03T11:54:40.280Z,100161.63
2023-03-03T11:57:34.215Z,100165.31
2023-03-03T12:00:29.859Z,100170.06
2023-03-03T12:03:26.286Z,100165.41
2023-03-03T12:06:21.588Z,100163.63
2023-03-03T12:09:21.030Z,100133.13
2023-03-03T12:12:09.179Z,100169.56
2023-03-03T12:15:05.745Z,100163.38
2023-03-03T12:18:09.802Z,100150.78
2023-03-03T12:21:12.449Z,100158.47
2023-03-03T12:24:13.313Z,100153.03
2023-03-03T12:27:08.054Z,100151.53
2023-03-03T12:30:00.673Z,100156.38
2023-03-03T12:33:02.938Z,100160.88
2023-03-03T12:35:59.838Z,100150.09
2023-03-03T12:38:55.210Z,100134.28
2023-03-03T12:41:45.192Z,100149.84
2023-03-03T12:44:36.443Z,100131.47
2023-03-03T12:47:28.952Z,100153.50
2023-03-03T12:50:28.764Z,100162.78
2023-03-03T12:53:25.998Z,100129.34
2023-03-03T12:56:12.087Z,100160.59
2023-03-03T12:59:04.895Z,100147.88
2023-03-03T13:02:10.573Z,100157.78
2023-03-03T13:04:58.741Z,100162.19
2023-03-03T13:07:47.547Z,100160.88
2023-03-03T13:10:41.347Z,100125.72
2023-03-03T13:13:33.219Z,100153.16
2023-03-03T13:16:31.971Z,100149.41
2023-03-03T13:19:28.429Z,100153.69
2023-03-03T13:22:16.928Z,100147.59
2023-03-03T13:25:07.449Z,100156.97
2023-03-03T13:27:57.662Z,100150.94
2023-03-03T13:30:48.816Z,100152.97
2023-03-03T13:33:36.256Z,100153.09
2023-03-03T13:36:20.857Z,100153.66
2023-03-03T13:39:15.240Z,100142.03
2023-03-03T13:42:03.716Z,100149.13
2023-03-03T13:44:52.096Z,100150.84
2023-03-03T13:47:47.396Z,100145.84
2023-03-03T13:50:38.483Z,100145.97
2023-03-03T13:53:38.037Z,100146.16
2023-03-03T13:56:42.425Z,100141.19
2023-03-03T13:59:34.975Z,100139.03
2023-03-03T14:02:51.041Z,100139.16
2023-03-03T14:05:38.659Z,100136.78
2023-03-03T14:08:39.841Z,100136.53
2023-03-03T14:11:29.618Z,100102.59
2023-03-03T14:14:25.625Z,100125.94
2023-03-03T14:17:18.159Z,100125.41
2023-03-03T14:20:16.926Z,100118.09
2023-03-03T14:23:05.147Z,100142.00
2023-03-03T14:25:55.979Z,100135.84
2023-03-03T14:28:41.970Z,100133.59
2023-03-03T14:31:28.428Z,100135.75
2023-03-03T14:34:28.703Z,100122.88
2023-03-03T14:37:29.250Z,100137.78
2023-03-03T14:40:20.436Z,100138.63
2023-03-03T14:43:20.045Z,100135.84
2023-03-03T14:46:31.392Z,100142.13
2023-03-03T14:49:17.609Z,100143.97
2023-03-03T14:52:12.947Z,100155.16
2023-03-03T14:55:00.452Z,100132.03
2023-03-03T14:57:47.359Z,100155.00
2023-03-03T15:00:36.387Z,100140.47
2023-03-03T15:03:24.432Z,100149.41
2023-03-03T15:06:14.007Z,100150.66
2023-03-03T15:08:58.273Z,100148.25
2023-03-03T15:11:45.811Z,100148.56
2023-03-03T15:14:38.481Z,100147.28
2023-03-03T15:17:29.264Z,100138.19
2023-03-03T15:20:44.120Z,100147.50
2023-03-03T15:23:57.137Z,100147.72
2023-03-03T15:26:49.186Z,100104.38
2023-03-03T15:29:39.578Z,100148.97
2023-03-03T15:32:31.169Z,100155.25
2023-03-03T15:35:32.218Z,100163.88
2023-03-03T15:38:29.850Z,100157.31
2023-03-03T15:41:24.048Z,100153.78
2023-03-03T15:44:17.432Z,100159.63
2023-03-03T15:47:23.588Z,100162.16
2023-03-03T15:50:25.598Z,100160.09
2023-03-03T15:53:28.292Z,100170.56
2023-03-03T15:56:27.562Z,100172.84
2023-03-03T15:59:33.758Z,100144.47
2023-03-03T16:02:21.358Z,100162.19
2023-03-03T16:05:16.433Z,100166.69
2023-03-03T16:08:06.038Z,100171.19
2023-03-03T16:11:00.941Z,100179.00
2023-03-03T16:14:02.632Z,100182.56
2023-03-03T16:16:55.019Z,100184.03
2023-03-03T16:19:46.648Z,100186.53
2023-03-03T16:22:49.022Z,100179.69
2023-03-03T16:25:51.268Z,100153.69
2023-03-03T16:28:51.349Z,100193.19
2023-03-03T16:31:40.195Z,100206.91
2023-03-03T16:34:31.838Z,100208.38
2023-03-03T16:37:24.251Z,100213.41
2023-03-03T16:40:15.968Z,100218.38
2023-03-03T16:43:11.827Z,100208.38
2023-03-03T16:45:59.790Z,100227.63
2023-03-03T16:48:49.844Z,100227.16
2023-03-03T16:51:46.010Z,100216.78
2023-03-03T16:54:36.524Z,100228.53
2023-03-03T16:57:29.320Z,100227.84
2023-03-03T17:00:21.314Z,100230.25
2023-03-03T17:03:35.531Z,100224.66
2023-03-03T17:06:24.767Z,100235.25
2023-03-03T17:09:44.339Z,100225.47
2023-03-03T17:12:44.398Z,100232.22
2023-03-03T17:15:43.692Z,100192.19
2023-03-03T17:18:39.905Z,100244.34
2023-03-03T17:21:36.178Z,100203.56
2023-03-03T17:24:34.076Z,100246.59
2023-03-03T17:27:26.555Z,100206.63
2023-03-03T17:30:20.087Z,100209.56
2023-03-03T17:33:34.959Z,100204.00
2023-03-03T17:36:34.707Z,100241.50
2023-03-03T17:39:35.973Z,100241.91
2023-03-03T17:42:26.150Z,100206.72
2023-03-03T17:45:12.920Z,100233.63
2023-03-03T17:48:17.537Z,100211.53
2023-03-03T17:51:18.076Z,100246.97
2023-03-03T17:54:17.662Z,100206.50
2023-03-03T17:57:17.731Z,100250.41
2023-03-03T18:00:18.858Z,100215.13
2023-03-03T18:03:27.855Z,100252.09
2023-03-03T18:06:27.816Z,100220.38
2023-03-03T18:09:26.444Z,100259.72
2023-03-03T18:12:16.554Z,100256.31
2023-03-03T18:15:28.856Z,100220.16
2023-03-03T18:18:31.393Z,100264.47
2023-03-03T18:21:17.982Z,100244.13
2023-03-03T18:24:36.225Z,100261.09
2023-03-03T18:27:33.505Z,100220.25
2023-03-03T18:30:29.491Z,100257.94
2023-03-03T18:33:15.521Z,100262.91
2023-03-03T18:36:16.169Z,100210.84
2023-03-03T18:39:03.093Z,100237.38
2023-03-03T18:42:09.826Z,100258.84
2023-03-03T18:44:54.466Z,100196.34
2023-03-03T18:48:03.901Z,100257.53
2023-03-03T18:50:49.539Z,100226.97
2023-03-03T18:57:34.317Z,100276.25
2023-03-03T19:00:24.576Z,100262.56
2023-03-03T19:03:26.290Z,100283.34
2023-03-03T19:06:11.096Z,100284.16
2023-03-03T19:08:58.038Z,100288.00
2023-03-03T19:11:44.920Z,100283.84
2023-03-03T19:14:41.600Z,100246.53
2023-03-03T19:17:50.826Z,100292.19
2023-03-03T19:20:40.694Z,100284.53
2023-03-03T19:23:32.540Z,100284.22
2023-03-03T19:26:35.861Z,100284.69
2023-03-03T19:30:03.765Z,100289.59
2023-03-03T19:33:23.094Z,100286.22
2023-03-03T19:36:23.992Z,100259.25
2023-03-03T19:39:25.142Z,100289.09
2023-03-03T19:42:21.467Z,100289.69
2023-03-03T19:45:18.173Z,100287.50
2023-03-03T19:48:07.829Z,100273.94
2023-03-03T19:50:59.217Z,100266.53
2023-03-03T19:53:54.087Z,100288.72
2023-03-03T19:56:44.256Z,100278.50
2023-03-03T19:59:34.954Z,100285.22
2023-03-03T20:02:33.817Z,100288.38
2023-03-03T20:05:27.725Z,100223.16
2023-03-03T20:08:19.632Z,100288.59
2023-03-03T20:11:11.248Z,100289.03
2023-03-03T20:14:04.087Z,100248.41
2023-03-03T20:16:50.518Z,100276.38
2023-03-03T20:19:50.674Z,100255.22
2023-03-03T20:22:43.794Z,100284.63
2023-03-03T20:25:35.988Z,100289.34
2023-03-03T20:28:42.386Z,100265.19
2023-03-03T20:31:34.087Z,100278.28
2023-03-03T20:34:28.239Z,100287.53
2023-03-03T20:37:17.395Z,100257.22
2023-03-03T20:40:12.015Z,100304.03
2023-03-03T20:43:06.593Z,100307.19
2023-03-03T20:45:59.143Z,100296.28
2023-03-03T20:49:10.389Z,100259.50
2023-03-03T20:52:00.255Z,100271.22
2023-03-03T20:54:50.829Z,100277.03
2023-03-03T20:57:42.348Z,100305.94
2023-03-03T21:00:33.571Z,100255.38
2023-03-03T21:03:28.958Z,100259.59
2023-03-03T21:06:15.728Z,100306.56
2023-03-03T21:08:59.749Z,100219.84
2023-03-03T21:11:45.287Z,100205.59
2023-03-03T21:14:31.186Z,100278.56
2023-03-03T21:17:28.597Z,100284.94
2023-03-03T21:20:28.138Z,100281.69
2023-03-03T21:23:12.509Z,100282.31
2023-03-03T21:25:58.145Z,100273.41
2023-03-03T21:29:03.356Z,100287.50
2023-03-03T21:31:48.846Z,100270.91
2023-03-03T21:34:34.405Z,100271.16
2023-03-03T21:37:46.747Z,100279.31
2023-03-03T21:40:31.792Z,100286.66
2023-03-03T21:43:34.434Z,100262.31
2023-03-03T21:46:23.131Z,100280.47
2023-03-03T21:49:06.992Z,100292.41
2023-03-03T21:51:50.861Z,100285.19
2023-03-03T21:54:36.092Z,100271.22
2023-03-03T21:57:20.457Z,100294.09
2023-03-03T22:00:04.873Z,100253.88
2023-03-03T22:02:52.139Z,100282.38
2023-03-03T22:05:35.906Z,100276.38
2023-03-03T22:08:23.480Z,100287.16
2023-03-03T22:11:08.757Z,100282.59
2023-03-03T22:13:52.439Z,100285.56
2023-03-03T22:16:36.353Z,100262.31
2023-03-03T22:19:20.311Z,100243.53
2023-03-03T22:22:04.099Z,100290.03
2023-03-03T22:24:47.988Z,100286.16
2023-03-03T22:27:33.181Z,100267.97
2023-03-03T22:30:17.520Z,100272.25
2023-03-03T22:33:01.559Z,100271.19
2023-03-03T22:35:45.435Z,100274.53
2023-03-03T22:38:29.277Z,100264.44
2023-03-03T22:41:13.440Z,100265.72
2023-03-03T22:43:58.652Z,100267.69
2023-03-03T22:46:42.538Z,100274.06
2023-03-03T22:49:26.272Z,100278.97
2023-03-03T22:52:10.037Z,100268.53
2023-03-03T22:54:53.749Z,100288.00
2023-03-03T22:57:37.549Z,100262.44
2023-03-03T23:00:23.379Z,100291.94
2023-03-03T23:03:07.315Z,100283.25
2023-03-03T23:05:52.075Z,100284.09
2023-03-03T23:08:35.935Z,100279.75
2023-03-03T23:11:19.666Z,100275.59
2023-03-03T23:14:03.486Z,100265.06
2023-03-03T23:16:48.624Z,100262.97
2023-03-03T23:19:32.432Z,100260.97
2023-03-03T23:22:16.671Z,100245.88
2023-03-03T23:25:00.462Z,100269.41
2023-03-03T23:27:44.849Z,100263.03
2023-03-03T23:30:28.616Z,100276.25
2023-03-03T23:33:13.934Z,100278.09
2023-03-03T23:35:58.181Z,100284.41
2023-03-03T23:38:43.266Z,100241.00
2023-03-03T23:41:27.307Z,100278.22
2023-03-03T23:44:11.207Z,100288.47
2023-03-03T23:46:55.254Z,100247.16
2023-03-03T23:49:41.110Z,100294.38
2023-03-03T23:52:25.100Z,100294.38
2023-03-03T23:55:10.086Z,100298.19
2023-03-03T23:57:54.003Z,100248.84
